Time;durP1;ratioP1;P1;durP2;ratioP2;P2;SDS_P1;SDS_P2;PMS_P1;PMS_P2;Temp;Humidity;BMP_temperature;BMP_pressure;BME280_temperature;BME280_humidity;BME280_pressure;Samples;Min_cycle;Max_cycle;Signal;HPM_P1;HPM_P2
2022/04/08 00:02:14;;;;;;;13.73;8.63;;;;;;;4.45;100.00;98243.56;5121153;27;20053;-78
2022/04/08 00:04:50;;;;;;;13.57;9.32;;;;;;;4.42;100.00;98239.56;5095033;27;20043;-79
2022/04/08 00:07:16;;;;;;;15.40;8.85;;;;;;;4.40;100.00;98233.63;5096597;27;20055;-78
2022/04/08 00:09:42;;;;;;;13.00;7.32;;;;;;;4.39;100.00;98240.16;5094775;28;20559;-77
2022/04/08 00:12:09;;;;;;;13.10;8.35;;;;;;;4.38;100.00;98232.31;5098725;27;20050;-79
2022/04/08 00:14:34;;;;;;;12.98;8.65;;;;;;;4.37;100.00;98226.06;5100722;27;20144;-81
2022/04/08 00:17:01;;;;;;;11.32;7.00;;;;;;;4.35;100.00;98222.06;5129199;27;20107;-82
2022/04/08 00:19:27;;;;;;;15.73;8.85;;;;;;;4.32;100.00;98222.63;5100316;27;20587;-78
2022/04/08 00:21:53;;;;;;;13.48;7.85;;;;;;;4.31;100.00;98215.59;5105207;27;20031;-77
2022/04/08 00:24:18;;;;;;;12.07;8.55;;;;;;;4.30;100.00;98219.41;5102389;27;20040;-76
2022/04/08 00:26:48;;;;;;;11.70;6.93;;;;;;;4.29;100.00;98215.88;5125031;27;20047;-77
2022/04/08 00:29:14;;;;;;;12.68;8.45;;;;;;;4.28;100.00;98214.28;5067195;28;20031;-77
2022/04/08 00:31:58;;;;;;;11.40;7.78;;;;;;;4.29;100.00;98201.50;5122862;27;20050;-76
2022/04/08 00:34:42;;;;;;;12.95;7.18;;;;;;;4.28;100.00;98197.19;5111780;27;20549;-77
2022/04/08 00:37:09;;;;;;;12.00;8.50;;;;;;;4.28;100.00;98195.28;5115246;27;20039;-77
2022/04/08 00:39:35;;;;;;;10.77;7.47;;;;;;;4.28;100.00;98186.34;5102928;28;20042;-79
2022/04/08 00:42:01;;;;;;;11.52;7.93;;;;;;;4.27;100.00;98192.88;5114873;28;20031;-78
2022/04/08 00:44:26;;;;;;;8.48;5.72;;;;;;;4.24;100.00;98184.22;5125205;28;20043;-76
2022/04/08 00:46:52;;;;;;;10.85;7.70;;;;;;;4.23;100.00;98185.31;5114488;28;20050;-78
2022/04/08 00:49:17;;;;;;;14.50;9.75;;;;;;;4.25;100.00;98193.16;5124600;28;20043;-77
2022/04/08 00:51:44;;;;;;;12.00;8.43;;;;;;;4.23;100.00;98189.94;5113647;28;20119;-78
2022/04/08 00:54:10;;;;;;;12.15;7.55;;;;;;;4.21;100.00;98190.25;5099883;28;20045;-79
2022/04/08 00:56:36;;;;;;;13.77;8.00;;;;;;;4.20;100.00;98182.41;5112396;28;20039;-79
2022/04/08 00:59:01;;;;;;;12.52;8.63;;;;;;;4.18;100.00;98195.47;5116504;28;20174;-77
2022/04/08 01:01:27;;;;;;;15.95;8.68;;;;;;;4.15;100.00;98196.84;5123742;28;20039;-77
2022/04/08 01:03:53;;;;;;;14.40;8.98;;;;;;;4.15;100.00;98190.63;5125382;27;20038;-77
2022/04/08 01:06:20;;;;;;;15.20;9.25;;;;;;;4.13;100.00;98177.34;5112915;27;20044;-83
2022/04/08 01:08:46;;;;;;;17.35;10.68;;;;;;;4.11;100.00;98181.47;5114226;27;20036;-78
2022/04/08 01:11:12;;;;;;;20.88;11.18;;;;;;;4.08;100.00;98185.59;5095531;27;20138;-79
2022/04/08 01:13:38;;;;;;;17.88;10.13;;;;;;;4.07;100.00;98183.19;5105650;27;20453;-78
2022/04/08 01:16:07;;;;;;;17.35;9.57;;;;;;;4.03;100.00;98168.63;5126392;27;20568;-80
2022/04/08 01:18:33;;;;;;;21.80;12.40;;;;;;;4.01;100.00;98173.53;5118170;27;20039;-79
2022/04/08 01:21:05;;;;;;;23.30;12.23;;;;;;;3.98;100.00;98163.25;5101744;27;20622;-79
2022/04/08 01:23:32;;;;;;;23.90;12.50;;;;;;;3.94;100.00;98166.56;5103068;27;20031;-78
2022/04/08 01:25:58;;;;;;;20.40;11.30;;;;;;;3.92;100.00;98162.56;5116151;27;20538;-79
2022/04/08 01:28:25;;;;;;;21.70;11.10;;;;;;;3.89;100.00;98158.53;5125079;27;20184;-79
2022/04/08 01:30:51;;;;;;;21.73;11.88;;;;;;;3.87;100.00;98158.03;5118072;27;20122;-79
2022/04/08 01:33:17;;;;;;;21.80;11.30;;;;;;;3.86;100.00;98152.91;5112937;27;20182;-78
2022/04/08 01:35:42;;;;;;;23.98;12.20;;;;;;;3.84;100.00;98144.25;5089451;28;20051;-79
2022/04/08 01:38:09;;;;;;;22.75;11.45;;;;;;;3.83;100.00;98129.91;5127790;27;20571;-79
2022/04/08 01:40:35;;;;;;;23.30;11.57;;;;;;;3.81;100.00;98123.13;5102829;27;20051;-78
2022/04/08 01:43:00;;;;;;;18.17;9.98;;;;;;;3.81;100.00;98131.28;5131051;27;20036;-77
2022/04/08 01:45:26;;;;;;;26.52;12.98;;;;;;;3.80;100.00;98138.59;5100886;28;20114;-77
2022/04/08 01:47:52;;;;;;;21.45;11.95;;;;;;;3.82;100.00;98122.88;5119907;27;20042;-77
2022/04/08 01:50:20;;;;;;;21.25;11.68;;;;;;;3.82;100.00;98109.31;5114020;27;20046;-77
2022/04/08 01:52:46;;;;;;;15.63;9.00;;;;;;;3.83;100.00;98102.78;5113428;27;20043;-82
2022/04/08 01:55:12;;;;;;;25.02;14.55;;;;;;;3.84;100.00;98098.16;5108774;27;20110;-78
2022/04/08 01:57:38;;;;;;;19.85;10.02;;;;;;;3.83;100.00;98088.41;5125156;27;20044;-75
2022/04/08 02:00:04;;;;;;;19.73;11.18;;;;;;;3.83;100.00;98100.06;5112842;27;20556;-75
2022/04/08 02:02:38;;;;;;;22.10;13.23;;;;;;;3.85;100.00;98084.28;5105811;27;20032;-75
2022/04/08 02:05:05;;;;;;;24.55;15.23;;;;;;;3.86;100.00;98102.16;5112412;27;20066;-75
2022/04/08 02:07:30;;;;;;;24.20;12.45;;;;;;;3.89;100.00;98092.63;5083133;28;20408;-75
2022/04/08 02:09:56;;;;;;;19.92;10.55;;;;;;;3.87;100.00;98076.66;5108221;27;20069;-74
2022/04/08 02:12:21;;;;;;;19.60;11.13;;;;;;;3.88;100.00;98077.44;5081059;28;20046;-74
2022/04/08 02:14:47;;;;;;;23.67;14.57;;;;;;;3.89;100.00;98079.06;5108287;27;20517;-74
2022/04/08 02:17:13;;;;;;;21.45;13.13;;;;;;;3.88;100.00;98080.97;5100139;27;20363;-74
2022/04/08 02:19:39;;;;;;;21.15;10.35;;;;;;;3.89;100.00;98069.00;5107642;27;20130;-75
2022/04/08 02:22:05;;;;;;;21.90;12.25;;;;;;;3.90;100.00;98076.03;5100768;28;20509;-75
2022/04/08 02:24:32;;;;;;;20.25;11.43;;;;;;;3.91;100.00;98072.22;5108318;27;20032;-75
2022/04/08 02:26:58;;;;;;;17.65;9.05;;;;;;;3.91;100.00;98077.66;5107188;27;20096;-74
2022/04/08 02:29:23;;;;;;;17.73;9.88;;;;;;;3.90;100.00;98078.75;5084465;28;20036;-75
2022/04/08 02:31:49;;;;;;;18.40;10.23;;;;;;;3.88;100.00;98067.41;5109870;27;20130;-74
2022/04/08 02:34:15;;;;;;;22.52;13.50;;;;;;;3.89;100.00;98085.28;5104433;27;20032;-75
2022/04/08 02:36:41;;;;;;;19.40;10.85;;;;;;;3.87;100.00;98063.09;5099369;27;20040;-75
2022/04/08 02:39:07;;;;;;;21.23;13.43;;;;;;;3.86;100.00;98053.34;5107853;27;20066;-74
2022/04/08 02:41:33;;;;;;;18.48;11.25;;;;;;;3.87;100.00;98041.38;5103698;27;20413;-74
2022/04/08 02:43:59;;;;;;;16.83;9.90;;;;;;;3.86;100.00;98049.81;5100977;27;20569;-75
2022/04/08 02:46:24;;;;;;;18.58;10.02;;;;;;;3.86;100.00;98041.69;5102847;27;20055;-75
2022/04/08 02:48:50;;;;;;;16.85;10.75;;;;;;;3.85;100.00;98042.78;5108562;27;20059;-75
2022/04/08 02:51:16;;;;;;;13.55;7.95;;;;;;;3.84;100.00;98039.28;5086519;27;20035;-75
2022/04/08 02:53:42;;;;;;;14.55;7.78;;;;;;;3.86;100.00;98058.75;5110626;27;20039;-75
2022/04/08 02:56:07;;;;;;;15.68;10.20;;;;;;;3.87;100.00;98059.56;5108303;27;20519;-75
2022/04/08 02:58:33;;;;;;;11.65;6.47;;;;;;;3.88;100.00;98045.69;5096302;28;20059;-75
2022/04/08 03:00:59;;;;;;;14.13;8.77;;;;;;;3.87;100.00;98046.81;5096286;27;20390;-75
2022/04/08 03:03:26;;;;;;;13.65;8.07;;;;;;;3.88;100.00;98039.47;5097723;27;20104;-75
2022/04/08 03:05:53;;;;;;;12.68;8.13;;;;;;;3.88;100.00;98029.41;5101994;27;20797;-75
2022/04/08 03:08:19;;;;;;;13.30;9.18;;;;;;;3.90;100.00;98027.22;5108528;27;20449;-75
2022/04/08 03:10:45;;;;;;;10.25;6.65;;;;;;;3.93;100.00;98020.38;5103143;27;20032;-75
2022/04/08 03:13:11;;;;;;;12.25;8.13;;;;;;;3.96;100.00;98008.91;5106342;27;20104;-75
2022/04/08 03:15:38;;;;;;;11.85;7.25;;;;;;;3.98;100.00;98005.91;5093106;27;20028;-74
2022/04/08 03:18:05;;;;;;;9.18;5.85;;;;;;;4.00;100.00;97982.81;5094329;27;20114;-74
2022/04/08 03:20:30;;;;;;;12.40;7.57;;;;;;;4.01;100.00;97978.19;5101939;27;20044;-74
2022/04/08 03:22:56;;;;;;;10.50;6.80;;;;;;;4.03;100.00;97973.25;5107464;27;20511;-74
2022/04/08 03:25:21;;;;;;;12.05;7.22;;;;;;;4.03;100.00;97968.63;5098418;27;20040;-73
2022/04/08 03:27:47;;;;;;;11.32;7.53;;;;;;;4.04;100.00;97955.84;5099294;27;20489;-73
2022/04/08 03:30:13;;;;;;;11.48;7.47;;;;;;;4.03;100.00;97960.47;5104301;28;20040;-74
2022/04/08 03:32:38;;;;;;;11.70;7.88;;;;;;;4.03;100.00;97971.34;5097331;27;20051;-73
2022/04/08 03:35:04;;;;;;;11.48;7.80;;;;;;;4.01;100.00;97968.13;5099654;28;20035;-75
2022/04/08 03:37:30;;;;;;;10.45;6.80;;;;;;;4.02;100.00;97955.38;5091722;28;20048;-75
2022/04/08 03:39:55;;;;;;;10.68;7.40;;;;;;;4.00;100.00;97960.28;5101735;28;20027;-75
2022/04/08 03:42:22;;;;;;;13.50;8.23;;;;;;;4.01;100.00;97953.75;5103201;27;20043;-75
2022/04/08 03:44:49;;;;;;;11.85;7.20;;;;;;;4.01;100.00;97965.41;5108896;27;20063;-75
2022/04/08 03:47:15;;;;;;;9.70;6.85;;;;;;;4.02;100.00;97949.94;5094729;28;20043;-74
2022/04/08 03:49:41;;;;;;;9.32;5.93;;;;;;;4.03;100.00;97965.09;5100617;27;20043;-74
2022/04/08 03:52:09;;;;;;;10.65;6.10;;;;;;;4.04;100.00;97967.50;5079489;28;20028;-74
2022/04/08 03:54:55;;;;;;;10.05;5.70;;;;;;;4.05;100.00;97960.19;5115782;27;20070;-75
2022/04/08 03:57:39;;;;;;;11.68;7.45;;;;;;;4.07;100.00;97960.69;5105273;27;20031;-74
2022/04/08 04:00:05;;;;;;;10.07;6.32;;;;;;;4.09;100.00;97942.19;5103027;28;20390;-74
2022/04/08 04:02:50;;;;;;;9.85;6.93;;;;;;;4.10;100.00;97943.78;5099911;27;20096;-74
2022/04/08 04:05:34;;;;;;;6.72;3.58;;;;;;;4.12;100.00;97941.56;5093079;28;20070;-76
2022/04/08 04:08:18;;;;;;;9.45;6.32;;;;;;;4.12;100.00;97947.00;5104333;27;20528;-74
2022/04/08 04:11:02;;;;;;;8.70;4.57;;;;;;;4.16;100.00;97932.50;5101694;28;20045;-74
2022/04/08 04:13:31;;;;;;;7.70;4.85;;;;;;;4.18;100.00;97930.31;5098347;27;20130;-74
2022/04/08 04:15:57;;;;;;;9.05;5.97;;;;;;;4.19;100.00;97939.25;5094984;28;20478;-74
2022/04/08 04:18:22;;;;;;;9.65;6.40;;;;;;;4.21;100.00;97918.03;5103843;28;20036;-74
2022/04/08 04:21:12;;;;;;;8.63;6.22;;;;;;;4.23;100.00;97918.53;5100512;27;20533;-75
2022/04/08 04:23:57;;;;;;;8.88;6.20;;;;;;;4.25;100.00;97902.72;5095566;27;20446;-75
2022/04/08 04:26:41;;;;;;;8.82;5.30;;;;;;;4.26;100.00;97898.09;5112489;27;20047;-74
2022/04/08 04:29:26;;;;;;;9.60;6.57;;;;;;;4.28;100.00;97918.41;5098565;28;20422;-74
2022/04/08 04:31:55;;;;;;;10.15;5.68;;;;;;;4.30;100.00;97904.53;5093049;28;20032;-74
2022/04/08 04:34:22;;;;;;;10.52;6.50;;;;;;;4.31;100.00;97912.34;5093520;28;20040;-74
2022/04/08 04:36:48;;;;;;;9.82;6.57;;;;;;;4.33;100.00;97898.47;5096877;28;20097;-74
2022/04/08 04:39:14;;;;;;;9.63;6.22;;;;;;;4.33;100.00;97901.19;5098479;27;20453;-74
2022/04/08 04:41:40;;;;;;;10.50;6.63;;;;;;;4.33;100.00;97888.41;5096587;27;20040;-75
2022/04/08 04:44:05;;;;;;;10.43;5.68;;;;;;;4.36;100.00;97876.16;5101828;28;20375;-74
2022/04/08 04:46:31;;;;;;;9.50;5.20;;;;;;;4.38;100.00;97858.44;5092369;28;20074;-74
2022/04/08 04:48:57;;;;;;;10.98;7.45;;;;;;;4.41;100.00;97862.47;5106121;28;20091;-74
2022/04/08 04:51:22;;;;;;;12.32;6.80;;;;;;;4.41;100.00;97871.41;5108561;28;20031;-74
2022/04/08 04:53:48;;;;;;;8.88;5.88;;;;;;;4.42;100.00;97873.00;5103392;28;20058;-74
2022/04/08 04:56:14;;;;;;;9.98;6.70;;;;;;;4.47;100.00;97872.06;5097487;28;20085;-73
2022/04/08 04:58:44;;;;;;;12.60;7.38;;;;;;;4.50;100.00;97876.88;5098693;28;20028;-74
2022/04/08 05:01:10;;;;;;;8.43;5.88;;;;;;;4.54;100.00;97867.03;5094149;28;20044;-75
2022/04/08 05:03:54;;;;;;;11.93;8.73;;;;;;;4.59;100.00;97857.94;5101251;28;20043;-75
2022/04/08 05:06:44;;;;;;;11.63;7.63;;;;;;;4.63;100.00;97877.94;5100153;28;20181;-74
2022/04/08 05:09:28;;;;;;;12.25;9.95;;;;;;;4.66;100.00;97867.25;5084180;28;20093;-75
2022/04/08 05:12:18;;;;;;;12.23;9.35;;;;;;;4.70;100.00;97843.81;5103154;28;20046;-75
2022/04/08 05:15:06;;;;;;;11.82;7.95;;;;;;;4.74;100.00;97855.66;5104564;28;20042;-74
2022/04/08 05:17:35;;;;;;;13.35;8.45;;;;;;;4.76;100.00;97844.47;5098591;28;20032;-74
2022/04/08 05:20:02;;;;;;;10.77;7.72;;;;;;;4.78;100.00;97828.66;5098982;28;20032;-74
2022/04/08 05:22:46;;;;;;;12.40;7.45;;;;;;;4.79;100.00;97835.69;5106106;28;20097;-75
2022/04/08 05:25:30;;;;;;;14.80;9.35;;;;;;;4.81;100.00;97823.38;5101505;28;20051;-74
2022/04/08 05:28:15;;;;;;;10.98;8.20;;;;;;;4.85;100.00;97820.84;5097876;28;20055;-74
2022/04/08 05:31:00;;;;;;;11.85;6.72;;;;;;;4.87;100.00;97805.06;5104733;28;20123;-75
2022/04/08 05:33:26;;;;;;;7.20;4.25;;;;;;;4.89;100.00;97802.81;5102825;28;20138;-74
2022/04/08 05:35:52;;;;;;;10.90;8.23;;;;;;;4.94;100.00;97818.97;5097159;28;20562;-74
2022/04/08 05:38:36;;;;;;;11.93;8.73;;;;;;;4.96;100.00;97824.09;5102135;28;20046;-74
2022/04/08 05:41:21;;;;;;;10.40;6.50;;;;;;;5.01;100.00;97838.34;5100425;28;20082;-74
2022/04/08 05:44:05;;;;;;;9.40;7.35;;;;;;;5.06;100.00;97813.75;5087480;28;20055;-75
2022/04/08 05:46:50;;;;;;;11.65;6.53;;;;;;;5.09;100.00;97807.69;5102934;28;20039;-75
2022/04/08 05:49:34;;;;;;;8.35;5.90;;;;;;;5.13;100.00;97802.44;5102835;28;20062;-75
2022/04/08 05:52:19;;;;;;;8.38;5.60;;;;;;;5.14;100.00;97810.25;5100789;27;20061;-75
2022/04/08 05:54:44;;;;;;;9.02;6.60;;;;;;;5.15;100.00;97814.59;5096937;27;20071;-75
2022/04/08 05:57:10;;;;;;;8.02;5.15;;;;;;;5.18;100.00;97812.34;5102461;28;20173;-75
2022/04/08 05:59:39;;;;;;;11.13;5.72;;;;;;;5.20;100.00;97821.00;5107919;27;20052;-75
2022/04/08 06:02:24;;;;;;;9.48;7.53;;;;;;;5.22;100.00;97816.88;5107732;27;20172;-75
2022/04/08 06:05:08;;;;;;;10.65;6.72;;;;;;;5.25;100.00;97797.19;5114369;27;20527;-75
2022/04/08 06:07:54;;;;;;;8.77;6.60;;;;;;;5.31;100.00;97804.06;5126156;27;20057;-75
2022/04/08 06:10:38;;;;;;;11.02;7.05;;;;;;;5.34;100.00;97798.00;5104996;27;20055;-75
2022/04/08 06:13:25;;;;;;;8.27;6.68;;;;;;;5.36;100.00;97800.41;5110707;27;20049;-74
2022/04/08 06:15:51;;;;;;;8.75;4.53;;;;;;;5.39;100.00;97769.88;5089111;27;20084;-74
2022/04/08 06:18:18;;;;;;;9.80;7.68;;;;;;;5.42;100.00;97774.69;5110371;27;20514;-75
2022/04/08 06:21:04;;;;;;;7.95;6.30;;;;;;;5.44;100.00;97769.72;5109637;27;20033;-74
2022/04/08 06:23:49;;;;;;;6.80;4.53;;;;;;;5.44;100.00;97759.66;5113980;27;20062;-74
2022/04/08 06:26:34;;;;;;;3.72;3.22;;;;;;;5.44;100.00;97747.97;5125302;27;20055;-74
2022/04/08 06:29:18;;;;;;;8.25;6.05;;;;;;;5.45;100.00;97742.22;5127038;27;20104;-74
2022/04/08 06:32:03;;;;;;;7.35;6.63;;;;;;;5.47;100.00;97736.44;5109348;27;20456;-75
2022/04/08 06:34:48;;;;;;;6.70;6.00;;;;;;;5.50;100.00;97735.00;5104070;27;20054;-74
2022/04/08 06:37:32;;;;;;;8.13;7.25;;;;;;;5.50;100.00;97757.56;5121263;27;20051;-74
2022/04/08 06:40:05;;;;;;;7.00;4.50;;;;;;;5.54;100.00;97741.41;5097710;27;20040;-75
2022/04/08 06:42:31;;;;;;;8.77;5.30;;;;;;;5.60;100.00;97740.94;5112832;27;20050;-75
2022/04/08 06:45:15;;;;;;;6.10;5.28;;;;;;;5.64;100.00;97746.53;5103864;27;20099;-75
2022/04/08 06:48:00;;;;;;;6.55;5.10;;;;;;;5.66;100.00;97736.94;5121554;27;20570;-75
2022/04/08 06:50:44;;;;;;;5.97;4.55;;;;;;;5.68;100.00;97742.84;5089201;27;20417;-74
2022/04/08 06:53:28;;;;;;;6.32;4.50;;;;;;;5.68;100.00;97740.13;5114090;27;20045;-74
2022/04/08 06:56:12;;;;;;;7.07;4.13;;;;;;;5.70;100.00;97718.03;5103342;28;20054;-74
2022/04/08 06:58:39;;;;;;;5.45;4.57;;;;;;;5.74;100.00;97711.66;5109898;27;20040;-74
2022/04/08 07:01:06;;;;;;;7.85;5.20;;;;;;;5.83;100.00;97698.03;5112034;27;20398;-74
2022/04/08 07:03:31;;;;;;;4.38;3.67;;;;;;;5.92;100.00;97700.78;5122595;27;20039;-74
2022/04/08 07:06:16;;;;;;;5.03;3.88;;;;;;;5.94;100.00;97720.31;5118147;27;20512;-74
2022/04/08 07:09:00;;;;;;;5.25;4.70;;;;;;;5.97;100.00;97715.03;5099453;27;20062;-74
2022/04/08 07:11:47;;;;;;;5.57;5.03;;;;;;;6.03;100.00;97729.25;5121005;27;20092;-75
2022/04/08 07:14:31;;;;;;;6.68;4.55;;;;;;;6.05;100.00;97718.84;5125122;27;20045;-74
2022/04/08 07:17:15;;;;;;;3.70;3.30;;;;;;;6.03;100.00;97730.06;5097638;27;20361;-75
2022/04/08 07:20:00;;;;;;;4.30;3.70;;;;;;;6.02;100.00;97714.06;5107180;27;20046;-75
2022/04/08 07:22:44;;;;;;;4.20;3.80;;;;;;;6.06;100.00;97725.88;5122851;27;20092;-73
2022/04/08 07:25:10;;;;;;;7.55;5.63;;;;;;;6.12;100.00;97721.09;5126130;27;20034;-73
2022/04/08 07:27:43;;;;;;;5.03;4.53;;;;;;;6.11;100.00;97723.03;5118517;27;20063;-73
2022/04/08 07:30:27;;;;;;;5.57;5.07;;;;;;;6.13;100.00;97715.31;5107266;27;20059;-75
2022/04/08 07:33:11;;;;;;;4.47;3.78;;;;;;;6.16;100.00;97692.91;5097849;27;20084;-75
2022/04/08 07:35:58;;;;;;;4.80;4.18;;;;;;;6.27;100.00;97709.69;5107792;27;20105;-74
2022/04/08 07:38:42;;;;;;;4.45;4.05;;;;;;;6.38;100.00;97696.50;5122129;27;20602;-73
2022/04/08 07:41:27;;;;;;;5.13;4.63;;;;;;;6.45;100.00;97680.47;5121038;27;20412;-75
2022/04/08 07:44:04;;;;;;;5.15;4.03;;;;;;;6.51;100.00;97681.88;5123047;27;20035;-74
2022/04/08 07:46:30;;;;;;;4.25;3.85;;;;;;;6.54;100.00;97678.50;5110532;27;20040;-74
2022/04/08 07:48:55;;;;;;;4.20;3.40;;;;;;;6.60;100.00;97672.56;5121578;27;20083;-74
2022/04/08 07:51:41;;;;;;;4.75;3.97;;;;;;;6.64;100.00;97678.94;5111054;27;20523;-74
2022/04/08 07:54:26;;;;;;;4.63;3.90;;;;;;;6.67;100.00;97668.53;5093323;28;20074;-74
2022/04/08 07:57:16;;;;;;;5.32;4.80;;;;;;;6.74;100.00;97658.69;5102268;28;20051;-74
2022/04/08 07:59:59;;;;;;;4.50;3.38;;;;;;;6.83;100.00;97639.56;5110454;27;20054;-76
2022/04/08 08:02:29;;;;;;;3.10;2.28;;;;;;;7.04;100.00;97642.31;5100488;27;20055;-74
2022/04/08 08:04:54;;;;;;;;;;;;;;;7.32;100.00;97639.88;5108875;27;20070;-73
2022/04/08 08:07:20;;;;;;;6.85;3.53;;;;;;;7.37;100.00;97643.22;5107339;27;19962;-73
2022/04/08 08:10:04;;;;;;;5.07;3.47;;;;;;;7.40;100.00;97636.28;5116545;27;20088;-75
2022/04/08 08:12:49;;;;;;;6.18;4.18;;;;;;;7.42;100.00;97634.81;5091206;27;20050;-75
2022/04/08 08:15:15;;;;;;;4.90;4.38;;;;;;;7.44;100.00;97648.91;5114458;27;20047;-73
2022/04/08 08:17:42;;;;;;;5.88;3.88;;;;;;;7.43;100.00;97628.22;5117717;27;20035;-74
2022/04/08 08:20:26;;;;;;;4.55;4.15;;;;;;;7.37;100.00;97640.47;5103190;27;20655;-75
2022/04/08 08:23:11;;;;;;;3.00;2.55;;;;;;;7.30;100.00;97628.53;5115711;27;20184;-74
2022/04/08 08:25:55;;;;;;;3.90;3.50;;;;;;;7.30;99.57;97644.88;5104822;27;20050;-73
2022/04/08 08:28:39;;;;;;;3.60;3.15;;;;;;;7.31;99.09;97662.84;5095241;28;20124;-74
2022/04/08 08:31:05;;;;;;;4.22;3.60;;;;;;;7.35;99.12;97659.13;5124193;27;20035;-74
2022/04/08 08:33:31;;;;;;;4.72;4.20;;;;;;;7.50;99.08;97652.25;5113593;27;20035;-74
2022/04/08 08:35:56;;;;;;;4.50;4.10;;;;;;;7.67;99.19;97652.09;5122397;27;20030;-74
2022/04/08 08:38:41;;;;;;;3.50;3.20;;;;;;;7.68;98.40;97663.81;5118253;27;20042;-74
2022/04/08 08:41:25;;;;;;;3.97;2.92;;;;;;;7.70;99.01;97661.56;5107644;28;20058;-74
2022/04/08 08:44:10;;;;;;;4.00;3.60;;;;;;;7.74;98.79;97666.00;5121965;28;20233;-74
2022/04/08 08:46:54;;;;;;;4.38;3.45;;;;;;;7.79;97.63;97651.34;5122145;28;20061;-73
2022/04/08 08:49:38;;;;;;;5.25;3.58;;;;;;;7.83;97.71;97660.47;5113508;28;20130;-74
2022/04/08 08:52:23;;;;;;;5.25;2.80;;;;;;;7.87;96.83;97650.47;5093066;28;20136;-74
2022/04/08 08:54:50;;;;;;;7.10;2.90;;;;;;;7.99;96.61;97625.16;5085261;28;20044;-74
2022/04/08 08:57:19;;;;;;;3.55;2.83;;;;;;;8.03;97.26;97639.72;5082025;28;20440;-74
2022/04/08 09:00:13;;;;;;;2.70;1.77;;;;;;;8.00;96.18;97638.47;5098916;28;20553;-75
2022/04/08 09:02:57;;;;;;;3.40;3.10;;;;;;;7.98;96.21;97635.25;5108955;28;20043;-75
2022/04/08 09:05:45;;;;;;;3.47;3.17;;;;;;;8.01;96.25;97650.19;5087954;28;20046;-74
2022/04/08 09:08:34;;;;;;;4.53;3.28;;;;;;;8.00;95.76;97654.03;5104710;28;20552;-73
2022/04/08 09:11:24;;;;;;;2.78;2.13;;;;;;;7.94;95.57;97655.38;5092400;28;20043;-74
2022/04/08 09:14:08;;;;;;;3.75;3.25;;;;;;;7.89;95.38;97650.94;5104643;28;20065;-74
2022/04/08 09:16:59;;;;;;;4.70;3.53;;;;;;;7.86;95.64;97655.13;5106666;28;20043;-74
2022/04/08 09:19:25;;;;;;;4.05;3.45;;;;;;;7.85;96.02;97650.00;5105103;28;20036;-74
2022/04/08 09:21:54;;;;;;;6.38;4.05;;;;;;;7.84;95.70;97662.06;5093103;28;20043;-74
2022/04/08 09:24:39;;;;;;;3.15;2.80;;;;;;;7.84;95.36;97649.22;5106817;27;20049;-74
2022/04/08 09:27:32;;;;;;;4.18;3.35;;;;;;;7.86;95.53;97655.13;5099195;27;20551;-74
2022/04/08 09:30:18;;;;;;;5.85;3.60;;;;;;;7.87;96.04;97639.56;5103051;27;20313;-74
2022/04/08 09:33:18;;;;;;;4.85;3.55;;;;;;;7.88;95.72;97646.59;5115732;27;20039;-74
2022/04/08 09:36:03;;;;;;;4.32;3.60;;;;;;;7.87;95.14;97645.00;5116476;27;20158;-74
2022/04/08 09:38:32;;;;;;;5.68;3.78;;;;;;;7.86;95.40;97646.16;5130873;27;20121;-74
2022/04/08 09:40:59;;;;;;;;;;;;;;;7.85;95.32;97655.47;5113696;27;20042;-74
2022/04/08 09:43:43;;;;;;;4.20;3.80;;;;;;;7.84;95.29;97646.47;5113844;27;19972;-73
2022/04/08 09:46:28;;;;;;;4.65;4.18;;;;;;;7.83;94.74;97641.38;5110932;27;20082;-74
2022/04/08 09:49:13;;;;;;;4.63;3.58;;;;;;;7.83;95.39;97644.09;5112290;27;20062;-74
2022/04/08 09:51:59;;;;;;;4.30;3.88;;;;;;;7.81;94.95;97638.19;5112322;27;20417;-74
2022/04/08 09:54:46;;;;;;;5.93;4.43;;;;;;;7.80;95.31;97640.06;5129188;27;20086;-73
2022/04/08 09:57:35;;;;;;;4.93;3.80;;;;;;;7.80;95.21;97645.53;5099462;27;20459;-73
2022/04/08 10:00:01;;;;;;;5.35;4.65;;;;;;;7.81;94.51;97652.63;5114727;27;20071;-73
2022/04/08 10:02:28;;;;;;;7.78;4.35;;;;;;;7.81;94.40;97638.19;5109272;27;20059;-73
2022/04/08 10:04:55;;;;;;;5.93;4.03;;;;;;;7.83;94.03;97642.16;5121288;27;20044;-73
2022/04/08 10:07:21;;;;;;;5.55;4.82;;;;;;;7.86;94.08;97637.97;5120365;27;20515;-74
2022/04/08 10:10:21;;;;;;;8.93;5.47;;;;;;;7.88;93.78;97629.44;5095604;28;20093;-74
2022/04/08 10:13:44;;;;;;;5.47;4.20;;;;;;;7.88;94.09;97635.69;5114373;27;20124;-74
2022/04/08 10:16:28;;;;;;;7.15;5.10;;;;;;;7.88;93.72;97640.34;5041426;28;20089;-74
2022/04/08 10:19:14;;;;;;;6.95;6.25;;;;;;;7.88;94.39;97646.59;5095124;27;20100;-74
2022/04/08 10:22:02;;;;;;;9.68;6.28;;;;;;;7.86;93.97;97646.16;5125734;27;20053;-76
2022/04/08 10:24:53;;;;;;;6.45;5.13;;;;;;;7.85;94.55;97648.09;5103285;27;20058;-75
2022/04/08 10:27:35;;;;;;;6.70;5.15;;;;;;;7.84;94.40;97656.59;5096977;27;20051;-74
2022/04/08 10:30:13;;;;;;;6.65;5.70;;;;;;;7.83;93.70;97655.81;5106136;27;20032;-74
2022/04/08 10:33:02;;;;;;;8.30;6.15;;;;;;;7.83;93.35;97660.47;5128656;27;20099;-74
2022/04/08 10:35:54;;;;;;;7.65;6.07;;;;;;;7.83;93.87;97666.72;5100465;27;20089;-74
2022/04/08 10:38:38;;;;;;;7.72;5.80;;;;;;;7.81;93.43;97660.81;5105346;27;20098;-74
2022/04/08 10:41:23;;;;;;;6.70;5.57;;;;;;;7.82;93.22;97665.13;5095904;27;20067;-74
2022/04/08 10:44:07;;;;;;;8.95;5.68;;;;;;;7.83;93.30;97674.91;5112118;27;20046;-72
2022/04/08 10:46:52;;;;;;;7.72;5.22;;;;;;;7.83;93.65;97677.66;5105362;27;20054;-74
2022/04/08 10:49:18;;;;;;;9.75;5.28;;;;;;;7.86;93.94;97670.72;5098560;28;20126;-73
2022/04/08 10:51:49;;;;;;;7.15;6.25;;;;;;;7.83;93.46;97683.09;5111628;27;20468;-73
2022/04/08 10:54:15;;;;;;;9.63;5.32;;;;;;;7.79;93.47;97686.81;5124332;27;20041;-72
2022/04/08 10:56:59;;;;;;;6.50;4.82;;;;;;;7.77;93.31;97695.34;5086123;27;20123;-74
2022/04/08 10:59:52;;;;;;;5.80;4.32;;;;;;;7.79;94.06;97697.75;5106067;27;20042;-74
2022/04/08 11:02:38;;;;;;;7.03;4.20;;;;;;;7.78;94.18;97680.56;5111535;27;20140;-74
2022/04/08 11:05:11;;;;;;;5.95;4.97;;;;;;;7.78;93.69;97701.59;5100829;27;20126;-73
2022/04/08 11:07:41;;;;;;;5.03;4.22;;;;;;;7.79;93.33;97703.19;5111028;27;20404;-74
2022/04/08 11:10:25;;;;;;;6.82;4.68;;;;;;;7.77;93.66;97700.81;5114321;27;20046;-74
2022/04/08 11:13:13;;;;;;;5.95;4.30;;;;;;;7.76;93.11;97710.13;5102373;27;20146;-74
2022/04/08 11:15:57;;;;;;;5.72;4.47;;;;;;;7.75;93.84;97714.00;5120710;27;20042;-74
2022/04/08 11:18:46;;;;;;;5.88;4.30;;;;;;;7.72;93.40;97724.78;5129103;27;20570;-75
2022/04/08 11:21:33;;;;;;;6.20;4.20;;;;;;;7.70;93.19;97729.78;5112107;27;20042;-76
2022/04/08 11:24:18;;;;;;;4.88;4.30;;;;;;;7.65;93.39;97752.63;5092155;28;20135;-74
2022/04/08 11:27:03;;;;;;;5.68;3.72;;;;;;;7.59;93.39;97734.84;5100875;27;20092;-74
2022/04/08 11:29:28;;;;;;;4.47;3.78;;;;;;;7.53;94.00;97733.44;5120995;27;20036;-74
2022/04/08 11:32:07;;;;;;;7.55;4.55;;;;;;;7.49;94.48;97748.88;5115923;27;20039;-74
2022/04/08 11:34:33;;;;;;;6.75;4.20;;;;;;;7.41;93.98;97753.25;5109902;27;20040;-74
2022/04/08 11:36:59;;;;;;;3.72;2.38;;;;;;;7.39;94.57;97751.97;5096148;28;20502;-74
2022/04/08 11:39:26;;;;;;;6.55;3.70;;;;;;;7.33;94.11;97767.75;5103784;27;20040;-74
2022/04/08 11:42:11;;;;;;;6.25;3.92;;;;;;;7.26;94.98;97778.38;5105167;27;20062;-75
2022/04/08 11:44:56;;;;;;;5.88;3.80;;;;;;;7.18;94.99;97781.94;5101246;27;20095;-77
2022/04/08 11:47:48;;;;;;;3.78;2.90;;;;;;;7.01;94.47;97790.22;5122944;27;20470;-75
2022/04/08 11:50:36;;;;;;;4.72;2.78;;;;;;;6.91;94.20;97794.88;5102602;27;20059;-74
2022/04/08 11:53:02;;;;;;;2.42;2.15;;;;;;;6.82;94.00;97790.59;5103059;27;20139;-76
2022/04/08 11:55:28;;;;;;;3.85;2.38;;;;;;;6.76;93.57;97794.63;5113149;27;20047;-75
2022/04/08 11:58:17;;;;;;;5.00;2.13;;;;;;;6.71;94.49;97806.50;5117667;27;20192;-74
2022/04/08 12:01:03;;;;;;;3.45;2.35;;;;;;;6.66;93.49;97814.84;5099603;27;20512;-74
2022/04/08 12:03:50;;;;;;;3.97;2.20;;;;;;;6.61;93.87;97828.66;5121301;27;20049;-74
2022/04/08 12:06:41;;;;;;;1.63;1.52;;;;;;;6.61;93.76;97818.56;5123506;27;20524;-74
2022/04/08 12:09:25;;;;;;;2.15;1.90;;;;;;;6.62;93.53;97830.25;5116576;27;20414;-77